Rockwall's Hourly Summary for Saturday, March 18, 2017
Hour Temp
(f)
RH
(%)
Solar Rad.
(MJ/m2)
Rainfall
(in)
Wind
(mph)
3/18/2017 12:00 AM 71 65 0 0 2.85
3/18/2017 1:00 AM 71 65 0 0 5.88
3/18/2017 2:00 AM 69 69 0 0 5.99
3/18/2017 3:00 AM 67 74 0 0 4.52
3/18/2017 4:00 AM 66 79 0 0 3.84
3/18/2017 5:00 AM 65 83 0 0 3.4
3/18/2017 6:00 AM 64 87 0 0 2.88
3/18/2017 7:00 AM 63 91 0 0 2.45
3/18/2017 8:00 AM 63 94 0.01 0 2.41
3/18/2017 9:00 AM 64 93 0.15 0 3.12
3/18/2017 10:00 AM 64 91 0.37 0 2.8
3/18/2017 11:00 AM 66 82 0.63 0 1.78
3/18/2017 12:00 PM 68 78 1.02 0 1.94
3/18/2017 1:00 PM 70 70 1.36 0 1.36
3/18/2017 2:00 PM 74 65 2.17 0 1.97
3/18/2017 3:00 PM 77 60 2.52 0 2.29
3/18/2017 4:00 PM 77 60 1.77 0 3.98
3/18/2017 5:00 PM 79 57 1.16 0 4.43
3/18/2017 6:00 PM 78 57 0.96 0 4.57
3/18/2017 7:00 PM 77 58 0.32 0 4.08
3/18/2017 8:00 PM 75 62 0.03 0 2.72
3/18/2017 9:00 PM 72 68 0 0 1.22
3/18/2017 10:00 PM 70 71 0 0 1.3
3/18/2017 11:00 PM 68 74 0 0 1.05
Data Summary 69 73 12.47 0.00 3.03